Main page


Airports :

Tunis, Tunisia

Tunis–Carthage International Airport

latitude: 36-50N, longitude: 010-14E, elevation: 3 m

Current weather observation

The report was made 39 minutes ago, at 04:00 UTC
Wind 11 kt from the West/Northwest, varying between West and North/Northwest
Temperature 13°C
Humidity 82%
Pressure 1000 hPa
Visibility 10 km or more
Scattered clouds at a height of 3000 ft

METAR: DTTA 170400Z 30011KT 270V330 9999 SCT030 13/10 Q1000 NOSIG

Time: 05:39 (04:39 UTC)


The report was made 5 hours and 39 minutes ago, at 23:00 UTC
Forecast valid from 17 at 00 UTC to 17 at 24 UTC
Wind 12 kt from the West/Northwest
Visibility 10 km or more
Scattered clouds at a height of 3000 ft
Probability 30% :
from 17 at 09 UTC to 17 at 16 UTC
Few clouds at a height of 2600 ft, Cumulonimbus.
Scattered clouds at a height of 3000 ft
light rain
from 17 at 21 UTC to 17 at 23 UTC
Wind 7 kt from the Southwest

TAF: DTTA 162300Z 1700/1724 30012KT 9999 SCT030 PROB30 TEMPO 1709/1716 -RA FEW026CB SCT030 BECMG 1721/1723 22007KT

Weather observations and forecasts of more than 4000 airports (METAR and TAF reports).

The available stations are represented by yellow and red dots on the map.

Hover mouse over dot to see the name of the station.

Then click to see weather observations and forecasts.

To change the map : click on the green buttons with a black cross to zoom in, on the green button with a dash to zoom out, or on the green arrows for adjacent maps.